createdAt,value
2018-05-13T00:07:00.228Z,0.00
2018-05-13T00:21:46.921Z,0.00
2018-05-13T00:22:27.248Z,0.00
2018-05-13T00:35:37.089Z,0.00
2018-05-13T00:36:19.111Z,0.00
2018-05-13T00:37:19.220Z,0.00
2018-05-13T00:38:19.932Z,0.00
2018-05-13T00:39:19.333Z,0.00
2018-05-13T00:40:19.082Z,0.00
2018-05-13T00:41:19.069Z,0.00
2018-05-13T00:42:19.063Z,0.00
2018-05-13T00:43:19.042Z,0.00
2018-05-13T00:44:19.039Z,0.00
2018-05-13T00:45:19.113Z,0.00
2018-05-13T00:46:19.031Z,0.00
2018-05-13T00:51:38.453Z,0.00
2018-05-13T00:52:21.601Z,0.00
2018-05-13T00:53:22.363Z,0.00
2018-05-13T00:54:21.588Z,0.00
2018-05-13T00:55:21.555Z,0.00
2018-05-13T00:56:22.358Z,0.00
2018-05-13T00:57:21.716Z,0.00
2018-05-13T01:00:40.105Z,0.00
2018-05-13T01:01:40.680Z,0.00
2018-05-13T01:07:44.251Z,0.00
2018-05-13T01:08:13.062Z,0.00
2018-05-13T01:08:44.690Z,0.00
2018-05-13T01:09:44.684Z,0.00
2018-05-13T01:10:45.085Z,0.00
2018-05-13T01:11:44.620Z,0.00
2018-05-13T01:12:44.586Z,0.00
2018-05-13T01:13:44.592Z,0.00
2018-05-13T01:14:44.942Z,0.00
2018-05-13T01:15:44.571Z,0.00
2018-05-13T01:26:06.801Z,0.00
2018-05-13T01:26:49.841Z,0.00
2018-05-13T01:40:29.046Z,0.00
2018-05-13T01:40:46.151Z,0.00
2018-05-13T02:37:47.020Z,0.00
2018-05-13T02:38:19.289Z,0.00
2018-05-13T02:39:19.400Z,0.00
2018-05-13T02:40:19.289Z,0.00
2018-05-13T02:41:19.275Z,0.00
2018-05-13T02:42:19.504Z,0.00
2018-05-13T02:57:25.689Z,0.00
2018-05-13T02:57:58.051Z,0.00
2018-05-13T02:58:58.918Z,0.00
2018-05-13T02:59:58.034Z,0.00
2018-05-13T03:00:58.897Z,0.00
2018-05-13T03:01:59.244Z,0.00
2018-05-13T03:02:58.931Z,0.00
2018-05-13T03:03:58.262Z,0.00
2018-05-13T03:04:57.994Z,4.00
2018-05-13T03:05:58.912Z,0.00
2018-05-13T03:06:58.238Z,0.00
2018-05-13T03:07:59.534Z,0.00
2018-05-13T03:34:27.913Z,28.00
2018-05-13T03:34:42.326Z,28.00
2018-05-13T03:56:44.807Z,128.00
2018-05-13T03:57:44.667Z,132.00
2018-05-13T03:58:44.636Z,140.00
2018-05-13T03:59:44.684Z,144.00
2018-05-13T04:00:44.635Z,152.00
2018-05-13T04:01:44.618Z,160.00
2018-05-13T04:15:02.318Z,228.00
2018-05-13T04:16:02.307Z,232.00
2018-05-13T04:24:40.462Z,284.00
2018-05-13T04:25:03.443Z,296.00
2018-05-13T04:26:03.572Z,304.00
2018-05-13T04:27:03.374Z,312.00
2018-05-13T04:33:38.064Z,360.00
2018-05-13T04:34:38.015Z,368.00
2018-05-13T04:35:37.948Z,380.00
2018-05-13T04:36:37.932Z,388.00
2018-05-13T04:37:37.931Z,392.00
2018-05-13T04:38:37.906Z,408.00
2018-05-13T04:39:37.946Z,416.00
2018-05-13T04:40:37.903Z,428.00
2018-05-13T04:41:37.956Z,432.00
2018-05-13T04:42:37.878Z,440.00
2018-05-13T04:43:37.879Z,448.00
2018-05-13T04:44:37.855Z,452.00
2018-05-13T04:45:37.861Z,464.00
2018-05-13T04:46:37.894Z,476.00
2018-05-13T04:47:37.848Z,484.00
2018-05-13T04:48:37.837Z,488.00
2018-05-13T04:49:37.825Z,496.00
2018-05-13T04:50:37.810Z,500.00
2018-05-13T04:51:37.806Z,508.00
2018-05-13T04:52:38.237Z,524.00
2018-05-13T04:53:37.787Z,532.00
2018-05-13T04:54:37.776Z,540.00
2018-05-13T04:55:37.796Z,552.00
2018-05-13T04:56:37.753Z,564.00
2018-05-13T04:57:37.749Z,576.00
2018-05-13T04:58:37.819Z,588.00
2018-05-13T04:59:37.742Z,600.00
2018-05-13T05:00:37.717Z,608.00
2018-05-13T05:01:37.707Z,616.00
2018-05-13T05:02:37.718Z,624.00
2018-05-13T05:03:37.695Z,640.00
2018-05-13T05:04:37.724Z,652.00
2018-05-13T05:05:37.684Z,672.00
2018-05-13T05:06:37.674Z,688.00
2018-05-13T05:07:37.684Z,672.00
2018-05-13T05:08:37.674Z,668.00
2018-05-13T05:09:37.645Z,668.00
2018-05-13T05:10:37.642Z,672.00
2018-05-13T05:11:37.644Z,676.00
2018-05-13T05:12:37.647Z,680.00
2018-05-13T05:13:37.647Z,680.00
2018-05-13T05:14:37.616Z,684.00
2018-05-13T05:15:37.610Z,684.00
2018-05-13T05:16:37.614Z,684.00
2018-05-13T05:17:37.624Z,688.00
2018-05-13T05:18:37.588Z,688.00
2018-05-13T05:19:37.575Z,688.00
2018-05-13T05:20:37.569Z,692.00
2018-05-13T05:21:37.564Z,700.00
2018-05-13T05:22:37.607Z,700.00
2018-05-13T05:23:37.546Z,708.00
2018-05-13T05:24:37.537Z,716.00
2018-05-13T05:25:37.520Z,728.00
2018-05-13T05:26:37.527Z,732.00
2018-05-13T05:27:37.501Z,740.00
2018-05-13T05:28:37.632Z,744.00
2018-05-13T05:29:37.495Z,748.00
2018-05-13T05:30:37.494Z,756.00
2018-05-13T05:31:37.475Z,760.00
2018-05-13T05:32:37.462Z,764.00
2018-05-13T05:33:37.464Z,764.00
2018-05-13T05:34:37.459Z,772.00
2018-05-13T05:35:38.226Z,772.00
2018-05-13T05:36:37.446Z,780.00
2018-05-13T05:37:37.434Z,784.00
2018-05-13T05:38:37.414Z,792.00
2018-05-13T05:39:37.436Z,800.00
2018-05-13T05:40:37.481Z,808.00
2018-05-13T05:41:37.400Z,816.00
2018-05-13T05:42:37.415Z,828.00
2018-05-13T05:43:37.384Z,836.00
2018-05-13T05:44:37.381Z,844.00
2018-05-13T05:45:37.388Z,852.00
2018-05-13T05:46:37.368Z,864.00
2018-05-13T05:47:37.358Z,864.00
2018-05-13T05:48:37.348Z,864.00
2018-05-13T05:49:37.338Z,872.00
2018-05-13T05:50:37.340Z,872.00
2018-05-13T05:51:37.329Z,872.00
2018-05-13T05:52:37.316Z,880.00
2018-05-13T05:53:37.305Z,876.00
2018-05-13T05:54:37.304Z,880.00
2018-05-13T05:55:37.307Z,880.00
2018-05-13T05:56:37.316Z,880.00
2018-05-13T05:57:37.282Z,884.00
2018-05-13T05:58:37.279Z,888.00
2018-05-13T05:59:37.266Z,900.00
2018-05-13T06:00:37.258Z,908.00
2018-05-13T06:01:37.285Z,924.00
2018-05-13T06:02:37.261Z,932.00
2018-05-13T06:03:37.284Z,936.00
2018-05-13T06:04:37.216Z,944.00
2018-05-13T06:05:37.225Z,940.00
2018-05-13T06:06:37.356Z,944.00
2018-05-13T06:07:37.205Z,956.00
2018-05-13T06:08:37.209Z,972.00
2018-05-13T06:09:37.197Z,984.00
2018-05-13T06:10:37.184Z,988.00
2018-05-13T06:11:37.177Z,1000.00
2018-05-13T06:12:37.230Z,1016.00
2018-05-13T06:13:37.161Z,1028.00
2018-05-13T06:14:37.159Z,1048.00
2018-05-13T06:15:37.176Z,1072.00
2018-05-13T06:16:37.147Z,1112.00
2018-05-13T06:17:37.142Z,1132.00
2018-05-13T06:18:37.121Z,1128.00
2018-05-13T06:19:37.211Z,1116.00
2018-05-13T06:20:37.130Z,1128.00
2018-05-13T06:21:37.114Z,1132.00
2018-05-13T06:22:37.097Z,1160.00
2018-05-13T06:23:37.088Z,1180.00
2018-05-13T06:24:37.069Z,1196.00
2018-05-13T06:25:37.075Z,1204.00
2018-05-13T06:26:37.085Z,1200.00
2018-05-13T06:27:37.066Z,1228.00
2018-05-13T06:28:37.052Z,1216.00
2018-05-13T06:29:37.049Z,1220.00
2018-05-13T06:30:37.112Z,1216.00
2018-05-13T06:31:37.060Z,1232.00
2018-05-13T06:32:37.024Z,1284.00
2018-05-13T06:33:37.051Z,1316.00
2018-05-13T06:34:37.007Z,1340.00
2018-05-13T06:35:36.995Z,1356.00
2018-05-13T06:36:37.146Z,1380.00
2018-05-13T06:37:36.987Z,1392.00
2018-05-13T06:38:36.995Z,1400.00
2018-05-13T06:39:36.982Z,1396.00
2018-05-13T06:40:36.969Z,1400.00
2018-05-13T06:41:36.960Z,1420.00
2018-05-13T06:42:36.993Z,1436.00
2018-05-13T06:43:36.946Z,1440.00
2018-05-13T06:44:36.934Z,1440.00
2018-05-13T06:45:36.960Z,1448.00
2018-05-13T06:46:36.930Z,1452.00
2018-05-13T06:47:37.027Z,1464.00
2018-05-13T06:48:36.918Z,1460.00
2018-05-13T06:49:36.905Z,1476.00
2018-05-13T06:50:36.897Z,1504.00
2018-05-13T06:51:36.890Z,1528.00
2018-05-13T06:52:36.882Z,1544.00
2018-05-13T06:53:36.956Z,1548.00
2018-05-13T06:54:36.903Z,1548.00
2018-05-13T06:55:36.868Z,1544.00
2018-05-13T06:56:36.871Z,1540.00
2018-05-13T06:57:36.943Z,1540.00
2018-05-13T06:58:36.849Z,1532.00
2018-05-13T06:59:36.874Z,1532.00
2018-05-13T07:00:36.839Z,1528.00
2018-05-13T07:01:36.841Z,1528.00
2018-05-13T07:02:36.857Z,1520.00
2018-05-13T07:03:36.820Z,1512.00
2018-05-13T07:04:36.816Z,1516.00
2018-05-13T07:05:36.860Z,1520.00
2018-05-13T07:06:36.804Z,1516.00
2018-05-13T07:07:36.791Z,1508.00
2018-05-13T07:08:36.783Z,1488.00
2018-05-13T07:09:36.779Z,1468.00
2018-05-13T07:10:36.785Z,1472.00
2018-05-13T07:11:36.801Z,1472.00
2018-05-13T07:12:36.759Z,1452.00
2018-05-13T07:13:36.787Z,1436.00
2018-05-13T07:14:36.735Z,1428.00
2018-05-13T07:15:36.743Z,1436.00
2018-05-13T07:16:36.752Z,1444.00
2018-05-13T07:17:36.727Z,1448.00
2018-05-13T07:18:36.732Z,1452.00
2018-05-13T07:19:36.713Z,1456.00
2018-05-13T07:20:36.716Z,1464.00
2018-05-13T07:21:36.706Z,1476.00
2018-05-13T07:22:36.712Z,1460.00
2018-05-13T07:23:36.701Z,1468.00
2018-05-13T07:24:36.676Z,1452.00
2018-05-13T07:25:36.683Z,1456.00
2018-05-13T07:26:36.711Z,1452.00
2018-05-13T07:27:36.669Z,1460.00
2018-05-13T07:28:36.655Z,1436.00
2018-05-13T07:29:36.665Z,1428.00
2018-05-13T07:30:36.648Z,1420.00
2018-05-13T07:31:36.644Z,1432.00
2018-05-13T07:32:36.642Z,1440.00
2018-05-13T07:33:36.623Z,1420.00
2018-05-13T07:34:36.619Z,1368.00
2018-05-13T07:35:36.786Z,1336.00
2018-05-13T07:36:36.617Z,1352.00
2018-05-13T07:37:36.600Z,1400.00
2018-05-13T07:38:36.607Z,1480.00
2018-05-13T07:39:36.596Z,1532.00
2018-05-13T07:40:36.570Z,1580.00
2018-05-13T07:41:36.610Z,1596.00
2018-05-13T07:42:36.779Z,1620.00
2018-05-13T07:43:36.565Z,1632.00
2018-05-13T07:44:36.571Z,1616.00
2018-05-13T07:45:36.553Z,1648.00
2018-05-13T07:46:36.551Z,1712.00
2018-05-13T07:47:36.546Z,1716.00
2018-05-13T07:48:36.569Z,1740.00
2018-05-13T07:49:36.533Z,1756.00
2018-05-13T07:50:36.517Z,1776.00
2018-05-13T07:51:36.512Z,1804.00
2018-05-13T07:52:36.521Z,1816.00
2018-05-13T07:53:36.545Z,1824.00
2018-05-13T07:54:36.507Z,1828.00
2018-05-13T07:55:36.500Z,1860.00
2018-05-13T07:56:36.799Z,1896.00
2018-05-13T07:57:36.486Z,1876.00
2018-05-13T07:58:36.511Z,1884.00
2018-05-13T07:59:36.470Z,1900.00
2018-05-13T08:00:36.474Z,1900.00
2018-05-13T08:01:36.468Z,1888.00
2018-05-13T08:02:36.695Z,1876.00
2018-05-13T08:03:36.453Z,1844.00
2018-05-13T08:04:36.794Z,1804.00
2018-05-13T08:05:36.444Z,1800.00
2018-05-13T08:06:36.440Z,1788.00
2018-05-13T08:07:36.431Z,1780.00
2018-05-13T08:08:36.435Z,1784.00
2018-05-13T08:09:36.415Z,1808.00
2018-05-13T08:10:36.555Z,1812.00
2018-05-13T08:11:36.411Z,1812.00
2018-05-13T08:12:36.408Z,1800.00
2018-05-13T08:13:36.394Z,1792.00
2018-05-13T08:14:36.397Z,1792.00
2018-05-13T08:15:36.391Z,1828.00
2018-05-13T08:16:36.420Z,1820.00
2018-05-13T08:17:36.394Z,1776.00
2018-05-13T08:18:36.379Z,1776.00
2018-05-13T08:19:36.377Z,1776.00
2018-05-13T08:20:36.367Z,1804.00
2018-05-13T08:21:36.357Z,1808.00
2018-05-13T08:22:36.398Z,1864.00
2018-05-13T08:23:36.339Z,1864.00
2018-05-13T08:24:36.380Z,1900.00
2018-05-13T08:25:36.333Z,1904.00
2018-05-13T08:26:36.333Z,1888.00
2018-05-13T08:27:36.338Z,1884.00
2018-05-13T08:28:36.792Z,1876.00
2018-05-13T08:29:36.320Z,1892.00
2018-05-13T08:30:36.424Z,1888.00
2018-05-13T08:31:36.301Z,1872.00
2018-05-13T08:32:36.306Z,1908.00
2018-05-13T08:33:36.303Z,1964.00
2018-05-13T08:34:36.292Z,1976.00
2018-05-13T08:35:36.332Z,1960.00
2018-05-13T08:36:36.290Z,1936.00
2018-05-13T08:37:36.277Z,1932.00
2018-05-13T08:38:36.339Z,1952.00
2018-05-13T08:39:36.261Z,2012.00
2018-05-13T08:40:36.439Z,2040.00
2018-05-13T08:41:36.265Z,2088.00
2018-05-13T08:42:36.244Z,2136.00
2018-05-13T08:43:36.245Z,2196.00
2018-05-13T08:44:36.232Z,2340.00
2018-05-13T08:45:36.265Z,2444.00
2018-05-13T08:46:36.303Z,2460.00
2018-05-13T08:47:36.232Z,2496.00
2018-05-13T08:48:36.966Z,2520.00
2018-05-13T08:49:36.221Z,2520.00
2018-05-13T08:50:36.230Z,2584.00
2018-05-13T08:51:36.204Z,2612.00
2018-05-13T08:52:36.268Z,2648.00
2018-05-13T08:53:36.199Z,2648.00
2018-05-13T08:54:36.186Z,2600.00
2018-05-13T08:55:36.198Z,2652.00
2018-05-13T08:56:36.180Z,2776.00
2018-05-13T08:57:36.180Z,2840.00
2018-05-13T08:58:36.203Z,2888.00
2018-05-13T08:59:36.193Z,2996.00
2018-05-13T09:00:36.173Z,2760.00
2018-05-13T09:01:36.165Z,2796.00
2018-05-13T09:02:36.186Z,2708.00
2018-05-13T09:03:36.167Z,2828.00
2018-05-13T09:04:36.156Z,2996.00
2018-05-13T09:05:36.160Z,3100.00
2018-05-13T09:06:36.149Z,3116.00
2018-05-13T09:07:36.148Z,3192.00
2018-05-13T09:08:36.172Z,3252.00
2018-05-13T09:09:36.139Z,3324.00
2018-05-13T09:10:36.136Z,3440.00
2018-05-13T09:11:36.137Z,3464.00
2018-05-13T09:12:36.801Z,3504.00
2018-05-13T09:13:36.134Z,3504.00
2018-05-13T09:14:36.129Z,3548.00
2018-05-13T09:15:36.150Z,3636.00
2018-05-13T09:16:36.121Z,3656.00
2018-05-13T09:17:36.119Z,3712.00
2018-05-13T09:18:36.111Z,3816.00
2018-05-13T09:19:36.119Z,3884.00
2018-05-13T09:20:36.184Z,4012.00
2018-05-13T09:21:36.112Z,4184.00
2018-05-13T09:22:36.100Z,4220.00
2018-05-13T09:23:36.102Z,4284.00
2018-05-13T09:24:36.108Z,4432.00
2018-05-13T09:25:36.131Z,4560.00
2018-05-13T09:26:36.116Z,4664.00
2018-05-13T09:27:36.103Z,4800.00
2018-05-13T09:28:36.101Z,4832.00
2018-05-13T09:29:36.094Z,4932.00
2018-05-13T09:30:36.131Z,5096.00
2018-05-13T09:31:36.087Z,5280.00
2018-05-13T09:32:36.083Z,5344.00
2018-05-13T09:33:36.092Z,5644.00
2018-05-13T09:34:36.241Z,5836.00
2018-05-13T09:35:36.091Z,6020.00
2018-05-13T09:36:36.092Z,6280.00
2018-05-13T09:37:36.097Z,6624.00
2018-05-13T09:38:36.091Z,7104.00
2018-05-13T09:39:36.096Z,7648.00
2018-05-13T09:40:36.108Z,8732.00
2018-05-13T09:41:36.093Z,14656.00
2018-05-13T09:42:36.103Z,29504.00
2018-05-13T09:43:36.102Z,39840.00
2018-05-13T09:44:36.092Z,41472.00
2018-05-13T09:45:36.103Z,46144.00
2018-05-13T09:46:36.090Z,46048.00
2018-05-13T09:47:36.097Z,39840.00
2018-05-13T09:48:36.095Z,41696.00
2018-05-13T09:49:36.088Z,44864.00
2018-05-13T09:50:36.122Z,47264.00
2018-05-13T09:51:36.125Z,50976.00
2018-05-13T09:52:36.093Z,48672.00
2018-05-13T09:53:36.109Z,47744.00
2018-05-13T09:54:36.105Z,47456.00
2018-05-13T09:55:36.114Z,49440.00
2018-05-13T09:56:36.141Z,53376.00
2018-05-13T09:57:36.135Z,55168.00
2018-05-13T09:58:36.116Z,52480.00
2018-05-13T09:59:36.120Z,48992.00
2018-05-13T10:00:36.118Z,50432.00
2018-05-13T10:01:36.263Z,50272.00
2018-05-13T10:02:36.114Z,46496.00
2018-05-13T10:03:36.128Z,44096.00
2018-05-13T10:04:36.130Z,43680.00
2018-05-13T10:05:36.128Z,47904.00
2018-05-13T10:06:36.121Z,56704.00
2018-05-13T10:07:36.158Z,64544.00
2018-05-13T10:08:36.139Z,64864.00
2018-05-13T10:09:36.226Z,61568.00
2018-05-13T10:10:36.151Z,53600.00
2018-05-13T10:11:36.164Z,50400.00
2018-05-13T10:12:36.222Z,47328.00
2018-05-13T10:13:36.149Z,53056.00
2018-05-13T10:14:36.160Z,60192.00
2018-05-13T10:15:36.168Z,63936.00
2018-05-13T10:16:36.192Z,62208.00
2018-05-13T10:17:36.174Z,64416.00
2018-05-13T10:18:36.382Z,60320.00
2018-05-13T10:19:36.306Z,63776.00
2018-05-13T10:20:36.182Z,72224.00
2018-05-13T10:21:36.203Z,74624.00
2018-05-13T10:22:36.318Z,65792.00
2018-05-13T10:23:36.245Z,54560.00
2018-05-13T10:24:36.844Z,59456.00
2018-05-13T10:25:36.207Z,53344.00
2018-05-13T10:26:36.218Z,47072.00
2018-05-13T10:27:36.225Z,45504.00
2018-05-13T10:28:36.287Z,57504.00
2018-05-13T10:29:36.236Z,62144.00
2018-05-13T10:30:36.236Z,53408.00
2018-05-13T10:31:36.245Z,49664.00
2018-05-13T10:32:36.249Z,48640.00
2018-05-13T10:33:36.261Z,51008.00
2018-05-13T10:34:36.320Z,62080.00
2018-05-13T10:35:36.274Z,58368.00
2018-05-13T10:36:36.283Z,50496.00
2018-05-13T10:37:36.275Z,55296.00
2018-05-13T10:38:36.291Z,28000.00
2018-05-13T10:39:36.281Z,15008.00
2018-05-13T10:40:36.334Z,11864.00
2018-05-13T10:41:36.299Z,16128.00
2018-05-13T10:42:36.311Z,11696.00
2018-05-13T10:43:36.314Z,35008.00
2018-05-13T10:44:36.330Z,33696.00
2018-05-13T10:45:36.331Z,23968.00
2018-05-13T10:46:36.381Z,22816.00
2018-05-13T10:47:36.349Z,24000.00
2018-05-13T10:48:36.340Z,33024.00
2018-05-13T10:49:36.343Z,32704.00
2018-05-13T10:50:36.351Z,24640.00
2018-05-13T10:51:36.348Z,9484.00
2018-05-13T10:52:36.371Z,17472.00
2018-05-13T10:53:36.378Z,20224.00
2018-05-13T10:54:36.374Z,10648.00
2018-05-13T10:55:36.371Z,9388.00
2018-05-13T10:56:36.385Z,8656.00
2018-05-13T10:57:36.802Z,14048.00
2018-05-13T10:58:36.387Z,48512.00
2018-05-13T10:59:36.392Z,1088.00
2018-05-13T11:00:36.395Z,11032.00
2018-05-13T11:01:36.401Z,7748.00
2018-05-13T11:02:36.393Z,5832.00
2018-05-13T11:03:36.552Z,14176.00
2018-05-13T11:04:36.394Z,8868.00
2018-05-13T11:05:36.404Z,15200.00
2018-05-13T11:06:36.409Z,8328.00
2018-05-13T11:07:36.400Z,6584.00
2018-05-13T11:08:36.419Z,17984.00
2018-05-13T11:09:36.894Z,6368.00
2018-05-13T11:10:36.412Z,38400.00
2018-05-13T11:11:36.420Z,30752.00
2018-05-13T11:12:36.416Z,20480.00
2018-05-13T11:13:36.420Z,39264.00
2018-05-13T11:14:36.439Z,48960.00
2018-05-13T11:15:36.412Z,44352.00
2018-05-13T11:16:36.426Z,39968.00
2018-05-13T11:17:36.437Z,36512.00
2018-05-13T11:18:36.455Z,40672.00
2018-05-13T11:19:36.429Z,58848.00
2018-05-13T11:20:36.537Z,20384.00
2018-05-13T11:21:36.436Z,34560.00
2018-05-13T11:22:36.573Z,29056.00
2018-05-13T11:23:36.432Z,20992.00
2018-05-13T11:24:36.435Z,19936.00
2018-05-13T11:25:36.441Z,20640.00
2018-05-13T11:26:36.450Z,49408.00
2018-05-13T11:27:36.455Z,54880.00
2018-05-13T11:28:36.478Z,63328.00
2018-05-13T11:29:36.451Z,66784.00
2018-05-13T11:30:36.452Z,59840.00
2018-05-13T11:31:36.463Z,62144.00
2018-05-13T11:32:36.466Z,66112.00
2018-05-13T11:33:36.507Z,71008.00
2018-05-13T11:34:36.533Z,67808.00
2018-05-13T11:35:36.478Z,65248.00
2018-05-13T11:36:36.484Z,61440.00
2018-05-13T11:37:36.478Z,68032.00
2018-05-13T11:38:36.484Z,71104.00
2018-05-13T11:39:36.494Z,63264.00
2018-05-13T11:40:36.904Z,56480.00
2018-05-13T11:41:36.506Z,64448.00
2018-05-13T11:42:36.510Z,66272.00
2018-05-13T11:43:36.513Z,38912.00
2018-05-13T11:44:36.518Z,50784.00
2018-05-13T11:45:36.531Z,49504.00
2018-05-13T11:46:36.563Z,64736.00
2018-05-13T11:47:36.533Z,59648.00
2018-05-13T11:48:36.552Z,61248.00
2018-05-13T11:49:36.553Z,67104.00
2018-05-13T11:50:36.955Z,71904.00
2018-05-13T11:51:36.563Z,70208.00
2018-05-13T11:52:36.575Z,68768.00
2018-05-13T11:53:36.577Z,65280.00
2018-05-13T11:54:36.598Z,69504.00
2018-05-13T11:55:36.593Z,75168.00
2018-05-13T11:56:36.621Z,73312.00
2018-05-13T11:57:36.610Z,74240.00
2018-05-13T11:58:36.639Z,13024.00
2018-05-13T11:59:36.668Z,35648.00
2018-05-13T12:00:37.430Z,13632.00
2018-05-13T12:01:36.638Z,40736.00
2018-05-13T12:02:36.714Z,6468.00
2018-05-13T12:03:36.708Z,17024.00
2018-05-13T12:04:36.877Z,5440.00
2018-05-13T12:05:36.686Z,3620.00
2018-05-13T12:06:36.904Z,5340.00
2018-05-13T12:07:36.691Z,3568.00
2018-05-13T12:08:36.699Z,3620.00
2018-05-13T12:09:37.431Z,4864.00
2018-05-13T12:10:36.856Z,6928.00
2018-05-13T12:11:36.708Z,5444.00
2018-05-13T12:12:36.726Z,6824.00
2018-05-13T12:13:36.722Z,5132.00
2018-05-13T12:14:36.756Z,5736.00
2018-05-13T12:15:36.753Z,12248.00
2018-05-13T12:16:36.803Z,5380.00
2018-05-13T12:17:36.748Z,5560.00
2018-05-13T12:18:36.753Z,4832.00
2018-05-13T12:19:36.743Z,6796.00
2018-05-13T12:20:36.759Z,5504.00
2018-05-13T12:21:36.776Z,4056.00
2018-05-13T12:22:36.791Z,3268.00
2018-05-13T12:23:37.439Z,3608.00
2018-05-13T12:24:37.061Z,3292.00
2018-05-13T12:25:36.761Z,2892.00
2018-05-13T12:26:36.766Z,3168.00
2018-05-13T12:27:36.794Z,3744.00
2018-05-13T12:28:36.773Z,4336.00
2018-05-13T12:29:36.782Z,4840.00
2018-05-13T12:30:36.790Z,4832.00
2018-05-13T12:31:36.775Z,4204.00
2018-05-13T12:32:36.786Z,4548.00
2018-05-13T12:33:36.791Z,8292.00
2018-05-13T12:34:36.782Z,4700.00
2018-05-13T12:35:36.790Z,5136.00
2018-05-13T12:36:36.946Z,5040.00
2018-05-13T12:37:36.799Z,4828.00
2018-05-13T12:38:36.792Z,4804.00
2018-05-13T12:39:36.801Z,5168.00
2018-05-13T12:40:37.437Z,15224.00
2018-05-13T12:41:36.810Z,4896.00
2018-05-13T12:42:36.984Z,4936.00
2018-05-13T12:43:36.797Z,4988.00
2018-05-13T12:44:36.807Z,5124.00
2018-05-13T12:45:36.806Z,5324.00
2018-05-13T12:46:36.804Z,6356.00
2018-05-13T12:47:36.849Z,5564.00
2018-05-13T12:48:36.838Z,5524.00
2018-05-13T12:49:36.809Z,6420.00
2018-05-13T12:50:36.821Z,4936.00
2018-05-13T12:51:36.816Z,3972.00
2018-05-13T12:52:36.811Z,2852.00
2018-05-13T12:53:37.457Z,2704.00
2018-05-13T12:54:36.806Z,3088.00
2018-05-13T12:55:36.807Z,3660.00
2018-05-13T12:56:36.816Z,3860.00
2018-05-13T12:57:37.450Z,4504.00
2018-05-13T12:58:36.822Z,5092.00
2018-05-13T12:59:36.885Z,5384.00
2018-05-13T13:00:36.808Z,5584.00
2018-05-13T13:01:36.818Z,5032.00
2018-05-13T13:02:36.830Z,4844.00
2018-05-13T13:03:36.814Z,4532.00
2018-05-13T13:04:36.810Z,4388.00
2018-05-13T13:05:36.979Z,4008.00
2018-05-13T13:06:36.827Z,4484.00
2018-05-13T13:07:36.825Z,4416.00
2018-05-13T13:08:37.468Z,4640.00
2018-05-13T13:09:36.804Z,3904.00
2018-05-13T13:10:37.475Z,3728.00
2018-05-13T13:11:37.030Z,3580.00
2018-05-13T13:12:36.853Z,3476.00
2018-05-13T13:13:36.804Z,3180.00
2018-05-13T13:14:36.802Z,3780.00
2018-05-13T13:15:36.809Z,3752.00
2018-05-13T13:16:36.808Z,3500.00
2018-05-13T13:17:36.814Z,3252.00
2018-05-13T13:18:36.811Z,2932.00
2018-05-13T13:19:36.801Z,2424.00
2018-05-13T13:20:36.804Z,2056.00
2018-05-13T13:21:36.830Z,2036.00
2018-05-13T13:22:36.864Z,1832.00
2018-05-13T13:23:36.804Z,1964.00
2018-05-13T13:24:36.854Z,1908.00
2018-05-13T13:25:36.928Z,1944.00
2018-05-13T13:26:36.796Z,1912.00
2018-05-13T13:27:36.801Z,2140.00
2018-05-13T13:28:37.473Z,2276.00
2018-05-13T13:29:36.941Z,1884.00
2018-05-13T13:30:36.878Z,1236.00
2018-05-13T13:31:36.797Z,1084.00
2018-05-13T13:32:36.821Z,1064.00
2018-05-13T13:33:36.786Z,1160.00
2018-05-13T13:34:36.793Z,1212.00
2018-05-13T13:35:37.139Z,1300.00
2018-05-13T13:36:36.829Z,1368.00
2018-05-13T13:37:36.773Z,1548.00
2018-05-13T13:38:36.785Z,1684.00
2018-05-13T13:39:36.860Z,1808.00
2018-05-13T13:40:36.785Z,1996.00
2018-05-13T13:41:36.844Z,2472.00
2018-05-13T13:42:36.770Z,3272.00
2018-05-13T13:43:36.921Z,4028.00
2018-05-13T13:44:36.767Z,5232.00
2018-05-13T13:45:36.850Z,9320.00
2018-05-13T13:46:36.767Z,8928.00
2018-05-13T13:47:36.792Z,4840.00
2018-05-13T13:48:36.772Z,15552.00
2018-05-13T13:49:36.774Z,17632.00
2018-05-13T13:50:36.788Z,10396.00
2018-05-13T13:51:37.486Z,6488.00
2018-05-13T13:52:37.009Z,4992.00
2018-05-13T13:53:36.759Z,4736.00
2018-05-13T13:54:36.766Z,3440.00
2018-05-13T13:55:36.774Z,2796.00
2018-05-13T13:56:36.766Z,2712.00
2018-05-13T13:57:36.844Z,2420.00
2018-05-13T13:58:36.764Z,2220.00
2018-05-13T13:59:36.745Z,2116.00
2018-05-13T14:00:36.769Z,2316.00
2018-05-13T14:01:36.747Z,2528.00
2018-05-13T14:02:36.754Z,2392.00
2018-05-13T14:03:36.889Z,4576.00
2018-05-13T14:04:36.742Z,2772.00
2018-05-13T14:05:36.818Z,2832.00
2018-05-13T14:06:36.772Z,3808.00
2018-05-13T14:07:36.744Z,2944.00
2018-05-13T14:08:36.742Z,2472.00
2018-05-13T14:09:36.748Z,2336.00
2018-05-13T14:10:36.758Z,2368.00
2018-05-13T14:11:36.738Z,2332.00
2018-05-13T14:12:36.727Z,2728.00
2018-05-13T14:13:36.736Z,1764.00
2018-05-13T14:14:36.779Z,1560.00
2018-05-13T14:15:36.765Z,1344.00
2018-05-13T14:16:36.731Z,1296.00
2018-05-13T14:17:36.721Z,1304.00
2018-05-13T14:18:36.712Z,1284.00
2018-05-13T14:19:36.713Z,1412.00
2018-05-13T14:20:36.812Z,1516.00
2018-05-13T14:21:36.729Z,1564.00
2018-05-13T14:22:36.723Z,1632.00
2018-05-13T14:23:36.745Z,1664.00
2018-05-13T14:24:36.703Z,1732.00
2018-05-13T14:25:36.708Z,1792.00
2018-05-13T14:26:36.769Z,1836.00
2018-05-13T14:27:37.505Z,1916.00
2018-05-13T14:28:36.741Z,1960.00
2018-05-13T14:29:36.701Z,1912.00
2018-05-13T14:30:36.695Z,1780.00
2018-05-13T14:31:36.701Z,1684.00
2018-05-13T14:32:37.074Z,1588.00
2018-05-13T14:33:36.701Z,1432.00
2018-05-13T14:34:36.699Z,1316.00
2018-05-13T14:35:36.704Z,1228.00
2018-05-13T14:36:36.690Z,1164.00
2018-05-13T14:37:36.700Z,1116.00
2018-05-13T14:38:37.035Z,1168.00
2018-05-13T14:39:36.710Z,1196.00
2018-05-13T14:40:36.684Z,1120.00
2018-05-13T14:41:36.678Z,948.00
2018-05-13T14:42:36.686Z,828.00
2018-05-13T14:43:36.703Z,520.00
2018-05-13T14:44:36.704Z,468.00
2018-05-13T14:45:36.677Z,464.00
2018-05-13T14:46:36.661Z,420.00
2018-05-13T14:47:36.647Z,384.00
2018-05-13T14:48:36.651Z,416.00
2018-05-13T14:49:36.705Z,436.00
2018-05-13T14:50:36.756Z,516.00
2018-05-13T14:51:36.652Z,568.00
2018-05-13T14:52:36.646Z,656.00
2018-05-13T14:53:36.638Z,648.00
2018-05-13T14:54:37.077Z,652.00
2018-05-13T14:55:36.655Z,648.00
2018-05-13T14:56:36.636Z,548.00
2018-05-13T14:57:36.639Z,576.00
2018-05-13T14:58:36.634Z,532.00
2018-05-13T14:59:36.630Z,572.00
2018-05-13T15:00:36.637Z,544.00
2018-05-13T15:01:36.797Z,564.00
2018-05-13T15:02:36.614Z,612.00
2018-05-13T15:03:36.744Z,576.00
2018-05-13T15:04:36.663Z,556.00
2018-05-13T15:05:36.614Z,656.00
2018-05-13T15:06:36.604Z,652.00
2018-05-13T15:07:36.592Z,656.00
2018-05-13T15:08:36.584Z,652.00
2018-05-13T15:09:36.581Z,656.00
2018-05-13T15:10:36.612Z,628.00
2018-05-13T15:11:36.567Z,628.00
2018-05-13T15:12:36.566Z,612.00
2018-05-13T15:13:37.061Z,616.00
2018-05-13T15:14:37.537Z,616.00
2018-05-13T15:15:36.661Z,636.00
2018-05-13T15:16:36.628Z,628.00
2018-05-13T15:17:36.557Z,640.00
2018-05-13T15:18:36.550Z,672.00
2018-05-13T15:19:36.590Z,664.00
2018-05-13T15:20:36.521Z,692.00
2018-05-13T15:21:36.533Z,724.00
2018-05-13T15:22:37.118Z,716.00
2018-05-13T15:23:36.593Z,716.00
2018-05-13T15:24:37.039Z,752.00
2018-05-13T15:25:36.507Z,764.00
2018-05-13T15:26:36.658Z,776.00
2018-05-13T15:27:36.596Z,808.00
2018-05-13T15:28:36.936Z,820.00
2018-05-13T15:29:36.507Z,876.00
2018-05-13T15:30:36.583Z,888.00
2018-05-13T15:31:36.892Z,936.00
2018-05-13T15:32:36.474Z,996.00
2018-05-13T15:33:36.461Z,1044.00
2018-05-13T15:34:36.468Z,1080.00